createdAt,value
2022-10-02T00:01:13.319Z,101440.59
2022-10-02T00:06:08.598Z,101444.91
2022-10-02T00:11:02.054Z,101459.66
2022-10-02T00:15:52.633Z,101469.22
2022-10-02T00:20:48.862Z,101454.47
2022-10-02T00:25:46.185Z,101460.53
2022-10-02T00:30:49.190Z,101457.09
2022-10-02T00:36:08.513Z,101456.22
2022-10-02T00:41:42.707Z,101470.09
2022-10-02T00:46:50.455Z,101482.22
2022-10-02T00:51:56.848Z,101485.69
2022-10-02T00:56:55.560Z,101479.63
2022-10-02T01:01:52.493Z,101474.41
2022-10-02T01:06:42.790Z,101470.94
2022-10-02T01:11:33.499Z,101490.03
2022-10-02T01:16:23.991Z,101495.22
2022-10-02T01:21:24.044Z,101490.00
2022-10-02T01:26:16.630Z,101490.00
2022-10-02T01:31:11.191Z,101491.72
2022-10-02T01:36:04.780Z,101488.28
2022-10-02T01:40:54.388Z,101500.41
2022-10-02T01:46:10.542Z,101500.41
2022-10-02T01:51:15.957Z,101509.06
2022-10-02T01:56:14.890Z,101504.72
2022-10-02T02:01:20.090Z,101508.19
2022-10-02T02:06:17.687Z,101516.00
2022-10-02T02:11:13.263Z,101510.78
2022-10-02T02:16:11.379Z,101508.19
2022-10-02T02:21:06.190Z,101509.94
2022-10-02T02:26:02.376Z,101504.72
2022-10-02T02:30:55.635Z,101513.41
2022-10-02T02:35:52.359Z,101515.09
2022-10-02T02:40:46.572Z,101511.66
2022-10-02T02:45:40.837Z,101508.19
2022-10-02T02:50:35.608Z,101506.44
2022-10-02T02:55:34.935Z,101518.56
2022-10-02T03:00:25.746Z,101515.09
2022-10-02T03:05:17.307Z,101530.69
2022-10-02T03:10:17.015Z,101526.41
2022-10-02T03:15:30.150Z,101525.53
2022-10-02T03:20:27.982Z,101520.31
2022-10-02T03:25:24.362Z,101526.41
2022-10-02T03:30:15.739Z,101534.16
2022-10-02T03:35:11.916Z,101515.94
2022-10-02T03:40:04.702Z,101514.25
2022-10-02T03:44:55.051Z,101524.63
2022-10-02T03:49:44.951Z,101528.09
2022-10-02T03:54:38.441Z,101530.69
2022-10-02T03:59:49.828Z,101537.63
2022-10-02T04:04:48.650Z,101531.53
2022-10-02T04:09:46.991Z,101532.41
2022-10-02T04:14:39.977Z,101535.00
2022-10-02T04:19:36.728Z,101530.69
2022-10-02T04:24:33.443Z,101545.41
2022-10-02T04:29:29.813Z,101538.44
2022-10-02T04:34:19.578Z,101547.13
2022-10-02T04:39:24.535Z,101549.69
2022-10-02T04:44:30.729Z,101562.66
2022-10-02T04:49:47.244Z,101564.41
2022-10-02T04:54:57.669Z,101560.03
2022-10-02T05:00:09.098Z,101562.63
2022-10-02T05:05:11.956Z,101577.31
2022-10-02T05:10:08.193Z,101576.47
2022-10-02T05:15:31.571Z,101575.56
2022-10-02T05:20:38.888Z,101581.63
2022-10-02T05:26:01.980Z,101598.94
2022-10-02T05:31:04.500Z,101599.81
2022-10-02T05:36:23.945Z,101591.97
2022-10-02T05:41:25.140Z,101601.47
2022-10-02T05:46:24.074Z,101598.81
2022-10-02T05:51:19.155Z,101601.38
2022-10-02T05:56:16.454Z,101617.81
2022-10-02T06:01:12.706Z,101643.81
2022-10-02T06:06:13.379Z,101637.75
2022-10-02T06:11:10.753Z,101638.59
2022-10-02T06:16:12.466Z,101631.69
2022-10-02T06:21:11.692Z,101644.72
2022-10-02T06:26:06.155Z,101635.16
2022-10-02T06:31:01.725Z,101647.34
2022-10-02T06:36:10.502Z,101670.75
2022-10-02T06:41:16.664Z,101677.66
2022-10-02T06:46:17.902Z,101685.50
2022-10-02T06:51:18.558Z,101687.22
2022-10-02T06:56:30.704Z,101686.34
2022-10-02T07:01:33.473Z,101690.69
2022-10-02T07:06:33.542Z,101702.03
2022-10-02T07:11:35.347Z,101705.53
2022-10-02T07:16:45.380Z,101695.13
2022-10-02T07:21:47.093Z,101703.88
2022-10-02T07:26:58.350Z,101703.88
2022-10-02T07:31:59.504Z,101709.09
2022-10-02T07:36:59.673Z,101686.53
2022-10-02T07:42:16.937Z,101709.13
2022-10-02T07:47:20.909Z,101710.03
2022-10-02T07:52:25.788Z,101725.66
2022-10-02T07:57:29.049Z,101724.81
2022-10-02T08:02:25.860Z,101736.09
2022-10-02T08:07:15.628Z,101740.47
2022-10-02T08:12:18.059Z,101750.03
2022-10-02T08:17:21.556Z,101761.31
2022-10-02T08:22:21.135Z,101759.63
2022-10-02T08:27:15.809Z,101777.00
2022-10-02T08:32:05.593Z,101785.72
2022-10-02T08:37:13.299Z,101785.72
2022-10-02T08:42:45.710Z,101794.44
2022-10-02T08:48:00.676Z,101808.34
2022-10-02T08:53:13.186Z,101812.69
2022-10-02T08:58:27.362Z,101816.22
2022-10-02T09:03:54.303Z,101812.75
2022-10-02T09:09:36.183Z,101824.09
2022-10-02T09:14:48.376Z,101824.09
2022-10-02T09:19:52.645Z,101831.91
2022-10-02T09:25:16.670Z,101831.91
2022-10-02T09:30:23.584Z,101831.03
2022-10-02T09:35:34.703Z,101834.50
2022-10-02T09:41:02.333Z,101845.84
2022-10-02T09:46:10.516Z,101839.75
2022-10-02T09:51:50.845Z,101844.09
2022-10-02T09:57:17.897Z,101853.66
2022-10-02T10:02:37.511Z,101858.00
2022-10-02T10:08:00.976Z,101862.34
2022-10-02T10:13:25.085Z,101862.34
2022-10-02T10:18:45.292Z,101859.75
2022-10-02T10:24:09.762Z,101891.88
2022-10-02T10:29:34.474Z,101895.38
2022-10-02T10:34:52.386Z,101898.88
2022-10-02T10:40:18.439Z,101895.38
2022-10-02T10:45:34.984Z,101890.16
2022-10-02T10:50:49.245Z,101902.31
2022-10-02T10:56:07.458Z,101915.34
2022-10-02T11:01:15.210Z,101920.56
2022-10-02T11:06:45.327Z,101931.00
2022-10-02T11:11:51.401Z,101933.59
2022-10-02T11:17:22.295Z,101939.69
2022-10-02T11:22:41.044Z,101937.06
2022-10-02T11:27:57.678Z,101944.88
2022-10-02T11:33:06.193Z,101948.31
2022-10-02T11:38:41.836Z,101950.03
2022-10-02T11:44:04.875Z,101955.25
2022-10-02T11:49:10.339Z,101956.09
2022-10-02T11:54:18.531Z,101963.91
2022-10-02T11:59:30.842Z,101969.19
2022-10-02T12:04:32.374Z,101973.53
2022-10-02T12:09:34.361Z,101969.16
2022-10-02T12:14:46.200Z,101989.88
2022-10-02T12:20:03.535Z,101974.16
2022-10-02T12:25:19.042Z,101979.34
2022-10-02T12:30:13.297Z,101975.84
2022-10-02T12:35:13.030Z,101970.53
2022-10-02T12:40:20.097Z,101995.72
2022-10-02T12:45:45.700Z,101993.09
2022-10-02T12:50:54.536Z,102011.28
2022-10-02T12:56:33.880Z,102006.88
2022-10-02T13:01:52.393Z,102003.28
2022-10-02T13:07:12.226Z,102002.34
2022-10-02T13:12:15.649Z,102014.44
2022-10-02T13:17:19.935Z,102010.09
2022-10-02T13:22:16.307Z,102006.44
2022-10-02T13:27:21.359Z,102008.88
2022-10-02T13:32:41.579Z,101994.13
2022-10-02T13:37:42.381Z,102013.31
2022-10-02T13:43:03.566Z,102022.84
2022-10-02T13:48:05.756Z,102025.28
2022-10-02T13:53:30.706Z,102040.13
2022-10-02T13:58:46.397Z,102036.84
2022-10-02T14:03:48.881Z,102031.75
2022-10-02T14:09:00.020Z,102045.78
2022-10-02T14:14:04.587Z,102048.53
2022-10-02T14:19:23.656Z,102052.06
2022-10-02T14:25:04.227Z,102059.81
2022-10-02T14:30:02.276Z,102058.72
2022-10-02T14:35:21.231Z,102058.66
2022-10-02T14:40:16.549Z,102055.16
2022-10-02T14:45:32.669Z,102062.13
2022-10-02T14:50:44.828Z,102060.31
2022-10-02T14:55:55.767Z,102070.72
2022-10-02T15:01:04.799Z,102081.16
2022-10-02T15:06:07.703Z,102086.47
2022-10-02T15:10:57.390Z,102098.81
2022-10-02T15:16:15.235Z,102096.53
2022-10-02T15:21:19.422Z,102115.00
2022-10-02T15:26:41.740Z,102128.16
2022-10-02T15:31:44.349Z,102127.34
2022-10-02T15:36:56.326Z,102123.84
2022-10-02T15:41:51.540Z,102146.53
2022-10-02T15:46:59.597Z,102136.16
2022-10-02T15:52:05.216Z,102144.91
2022-10-02T15:57:09.033Z,102153.66
2022-10-02T16:02:17.206Z,102159.72
2022-10-02T16:07:35.601Z,102160.63
2022-10-02T16:12:50.573Z,102177.19
2022-10-02T16:18:11.185Z,102193.72
2022-10-02T16:23:16.723Z,102198.94
2022-10-02T16:28:18.726Z,102217.25
2022-10-02T16:33:27.661Z,102222.41
2022-10-02T16:38:22.516Z,102232.88
2022-10-02T16:43:37.551Z,102237.19
2022-10-02T16:48:40.666Z,102245.88
2022-10-02T16:53:35.741Z,102256.25
2022-10-02T16:58:31.165Z,102270.16
2022-10-02T17:03:33.656Z,102270.97
2022-10-02T17:08:31.097Z,102271.81
2022-10-02T17:13:35.823Z,102263.94
2022-10-02T17:18:41.210Z,102286.50
2022-10-02T17:23:40.603Z,102304.69
2022-10-02T17:28:36.927Z,102305.50
2022-10-02T17:33:32.399Z,102322.00
2022-10-02T17:38:48.125Z,102323.63
2022-10-02T17:43:44.140Z,102339.28
2022-10-02T17:48:52.007Z,102340.06
2022-10-02T17:54:08.576Z,102359.16
2022-10-02T17:59:16.518Z,102352.16
2022-10-02T18:04:19.833Z,102352.97
2022-10-02T18:09:38.023Z,102361.59
2022-10-02T18:14:55.284Z,102362.41
2022-10-02T18:20:20.628Z,102382.31
2022-10-02T18:25:45.610Z,102383.13
2022-10-02T18:30:45.427Z,102384.75
2022-10-02T18:36:00.289Z,102393.34
2022-10-02T18:41:08.636Z,102388.13
2022-10-02T18:46:08.816Z,102407.25
2022-10-02T18:51:18.794Z,102408.16
2022-10-02T18:56:14.801Z,102404.63
2022-10-02T19:01:27.486Z,102402.78
2022-10-02T19:06:29.278Z,102418.34
2022-10-02T19:11:21.206Z,102419.09
2022-10-02T19:16:23.645Z,102439.03
2022-10-02T19:21:22.062Z,102429.41
2022-10-02T19:26:20.531Z,102445.03
2022-10-02T19:31:13.524Z,102447.56
2022-10-02T19:36:08.016Z,102460.50
2022-10-02T19:41:03.748Z,102448.94
2022-10-02T19:45:57.478Z,102466.25
2022-10-02T19:50:51.419Z,102481.78
2022-10-02T19:55:45.410Z,102487.84
2022-10-02T20:00:40.402Z,102488.63
2022-10-02T20:05:34.684Z,102481.66
2022-10-02T20:10:32.384Z,102484.19
2022-10-02T20:15:39.700Z,102481.44
2022-10-02T20:20:32.256Z,102498.69
2022-10-02T20:25:29.071Z,102504.69
2022-10-02T20:30:22.218Z,102512.38
2022-10-02T20:35:21.261Z,102515.78
2022-10-02T20:40:18.658Z,102533.03
2022-10-02T20:45:14.532Z,102537.25
2022-10-02T20:50:29.065Z,102520.44
2022-10-02T20:55:30.518Z,102550.78
2022-10-02T21:00:22.856Z,102554.97
2022-10-02T21:05:42.543Z,102565.28
2022-10-02T21:11:13.446Z,102578.13
2022-10-02T21:16:47.151Z,102569.34
2022-10-02T21:22:14.548Z,102571.03
2022-10-02T21:27:37.508Z,102582.88
2022-10-02T21:32:42.927Z,102585.31
2022-10-02T21:37:47.770Z,102594.75
2022-10-02T21:43:17.911Z,102595.47
2022-10-02T21:48:41.431Z,102597.94
2022-10-02T21:54:10.631Z,102602.09
2022-10-02T21:59:32.878Z,102605.47
2022-10-02T22:04:43.296Z,102602.75
2022-10-02T22:09:47.751Z,102614.78
2022-10-02T22:14:43.016Z,102618.03
2022-10-02T22:19:53.961Z,102624.78
2022-10-02T22:25:06.407Z,102625.56
2022-10-02T22:29:58.109Z,102625.56
2022-10-02T22:35:01.803Z,102635.81
2022-10-02T22:39:57.916Z,102634.84
2022-10-02T22:44:54.135Z,102630.38
2022-10-02T22:49:49.496Z,102632.81
2022-10-02T22:54:48.983Z,102632.72
2022-10-02T22:59:45.750Z,102609.72
2022-10-02T23:04:41.728Z,102637.63
2022-10-02T23:09:42.274Z,102649.66
2022-10-02T23:14:44.036Z,102626.66
2022-10-02T23:19:46.623Z,102643.06
2022-10-02T23:24:41.633Z,102649.94
2022-10-02T23:29:45.938Z,102653.28
2022-10-02T23:34:42.300Z,102654.13
2022-10-02T23:39:40.229Z,102651.53
2022-10-02T23:44:43.823Z,102647.13
2022-10-02T23:49:37.863Z,102633.69
2022-10-02T23:54:40.174Z,102630.94
2022-10-02T23:59:55.206Z,102638.75
